sensor_id;sensor_type;location;lat;lon;timestamp;pressure;altitude;pressure_sealevel;temperature;humidity
74573;BME280;63071;51.526;-0.134;2022-12-16T00:02:00;100991.28;;;21.57;23.61
74573;BME280;63071;51.526;-0.134;2022-12-16T00:04:25;100998.88;;;21.59;24.27
74573;BME280;63071;51.526;-0.134;2022-12-16T00:06:50;100990.19;;;21.62;23.45
74573;BME280;63071;51.526;-0.134;2022-12-16T00:09:16;100995.53;;;21.62;23.46
74573;BME280;63071;51.526;-0.134;2022-12-16T00:11:41;100991.31;;;21.61;23.49
74573;BME280;63071;51.526;-0.134;2022-12-16T00:14:07;100983.28;;;21.57;23.74
74573;BME280;63071;51.526;-0.134;2022-12-16T00:16:32;100991.28;;;21.57;24.07
74573;BME280;63071;51.526;-0.134;2022-12-16T00:18:58;100986.72;;;21.58;23.95
74573;BME280;63071;51.526;-0.134;2022-12-16T00:21:23;100993.94;;;21.57;24.04
74573;BME280;63071;51.526;-0.134;2022-12-16T00:23:54;100995.78;;;21.57;24.27
74573;BME280;63071;51.526;-0.134;2022-12-16T00:26:20;100992.72;;;21.55;24.01
74573;BME280;63071;51.526;-0.134;2022-12-16T00:28:45;100996.22;;;21.59;23.54
74573;BME280;63071;51.526;-0.134;2022-12-16T00:31:11;100993.13;;;21.57;24.00
74573;BME280;63071;51.526;-0.134;2022-12-16T00:33:36;100990.13;;;21.58;23.86
74573;BME280;63071;51.526;-0.134;2022-12-16T00:36:02;100992.03;;;21.58;23.56
74573;BME280;63071;51.526;-0.134;2022-12-16T00:38:28;100984.81;;;21.58;23.76
74573;BME280;63071;51.526;-0.134;2022-12-16T00:40:54;100992.44;;;21.60;23.32
74573;BME280;63071;51.526;-0.134;2022-12-16T00:43:19;100989.78;;;21.60;23.84
74573;BME280;63071;51.526;-0.134;2022-12-16T00:45:46;100990.53;;;21.60;23.62
74573;BME280;63071;51.526;-0.134;2022-12-16T00:48:12;100987.13;;;21.60;23.41
74573;BME280;63071;51.526;-0.134;2022-12-16T00:50:37;100986.38;;;21.59;23.52
74573;BME280;63071;51.526;-0.134;2022-12-16T00:53:04;100984.47;;;21.60;24.12
74573;BME280;63071;51.526;-0.134;2022-12-16T00:55:30;100984.06;;;21.58;23.60
74573;BME280;63071;51.526;-0.134;2022-12-16T00:57:57;100979.84;;;21.57;23.84
74573;BME280;63071;51.526;-0.134;2022-12-16T01:00:23;100978.72;;;21.58;23.71
74573;BME280;63071;51.526;-0.134;2022-12-16T01:02:50;100982.09;;;21.55;23.81
74573;BME280;63071;51.526;-0.134;2022-12-16T01:05:22;100985.94;;;21.57;23.51
74573;BME280;63071;51.526;-0.134;2022-12-16T01:07:51;100977.56;;;21.55;23.85
74573;BME280;63071;51.526;-0.134;2022-12-16T01:10:16;100993.94;;;21.57;23.59
74573;BME280;63071;51.526;-0.134;2022-12-16T01:12:42;100997.34;;;21.58;24.01
74573;BME280;63071;51.526;-0.134;2022-12-16T01:15:08;100988.22;;;21.59;23.30
74573;BME280;63071;51.526;-0.134;2022-12-16T01:17:37;100989.38;;;21.58;23.39
74573;BME280;63071;51.526;-0.134;2022-12-16T01:20:03;100985.16;;;21.57;23.53
74573;BME280;63071;51.526;-0.134;2022-12-16T01:22:30;100994.28;;;21.56;23.47
74573;BME280;63071;51.526;-0.134;2022-12-16T01:24:57;100995.09;;;21.60;23.60
74573;BME280;63071;51.526;-0.134;2022-12-16T01:27:23;100996.63;;;21.61;23.76
74573;BME280;63071;51.526;-0.134;2022-12-16T01:29:48;101004.59;;;21.61;23.92
74573;BME280;63071;51.526;-0.134;2022-12-16T01:32:14;101005.75;;;21.60;23.87
74573;BME280;63071;51.526;-0.134;2022-12-16T01:34:40;101000.44;;;21.60;23.30
74573;BME280;63071;51.526;-0.134;2022-12-16T01:37:10;101004.59;;;21.61;23.46
74573;BME280;63071;51.526;-0.134;2022-12-16T01:39:36;101009.09;;;21.57;23.83
74573;BME280;63071;51.526;-0.134;2022-12-16T01:42:01;101009.50;;;21.59;23.53
74573;BME280;63071;51.526;-0.134;2022-12-16T01:44:27;101015.97;;;21.58;23.99
74573;BME280;63071;51.526;-0.134;2022-12-16T01:46:57;101028.50;;;21.57;23.44
74573;BME280;63071;51.526;-0.134;2022-12-16T01:49:35;101022.81;;;21.59;23.88
74573;BME280;63071;51.526;-0.134;2022-12-16T01:52:04;101028.09;;;21.55;23.56
74573;BME280;63071;51.526;-0.134;2022-12-16T01:58:00;101050.19;;;21.59;23.87
74573;BME280;63071;51.526;-0.134;2022-12-16T02:00:27;101046.75;;;21.59;23.25
74573;BME280;63071;51.526;-0.134;2022-12-16T02:02:54;101047.53;;;21.59;23.74
74573;BME280;63071;51.526;-0.134;2022-12-16T02:05:21;101050.19;;;21.59;23.32
74573;BME280;63071;51.526;-0.134;2022-12-16T02:16:44;101062.66;;;21.55;23.56
74573;BME280;63071;51.526;-0.134;2022-12-16T02:25:04;101065.31;;;21.55;23.15
74573;BME280;63071;51.526;-0.134;2022-12-16T02:34:01;101064.94;;;21.57;23.46
74573;BME280;63071;51.526;-0.134;2022-12-16T02:39:19;101061.88;;;21.55;23.30
74573;BME280;63071;51.526;-0.134;2022-12-16T02:41:54;101061.81;;;21.51;23.54
74573;BME280;63071;51.526;-0.134;2022-12-16T02:47:44;101072.50;;;21.55;23.50
74573;BME280;63071;51.526;-0.134;2022-12-16T02:52:46;101065.75;;;21.57;23.01
74573;BME280;63071;51.526;-0.134;2022-12-16T02:55:12;101065.31;;;21.55;23.21
74573;BME280;63071;51.526;-0.134;2022-12-16T02:57:57;101071.75;;;21.54;23.48
74573;BME280;63071;51.526;-0.134;2022-12-16T03:00:25;101073.66;;;21.54;23.25
74573;BME280;63071;51.526;-0.134;2022-12-16T03:03:48;101075.13;;;21.51;23.77
74573;BME280;63071;51.526;-0.134;2022-12-16T03:06:18;101074.75;;;21.53;22.95
74573;BME280;63071;51.526;-0.134;2022-12-16T03:08:52;101081.13;;;21.48;23.12
74573;BME280;63071;51.526;-0.134;2022-12-16T03:11:20;101086.88;;;21.50;23.98
74573;BME280;63071;51.526;-0.134;2022-12-16T03:13:49;101086.88;;;21.50;23.75
74573;BME280;63071;51.526;-0.134;2022-12-16T03:16:20;101090.66;;;21.49;23.12
74573;BME280;63071;51.526;-0.134;2022-12-16T03:19:18;101096.75;;;21.50;23.41
74573;BME280;63071;51.526;-0.134;2022-12-16T03:21:56;101091.00;;;21.48;23.32
74573;BME280;63071;51.526;-0.134;2022-12-16T03:24:25;101100.16;;;21.50;23.14
74573;BME280;63071;51.526;-0.134;2022-12-16T03:27:33;101101.63;;;21.48;23.53
74573;BME280;63071;51.526;-0.134;2022-12-16T03:32:40;101099.06;;;21.51;23.12
74573;BME280;63071;51.526;-0.134;2022-12-16T03:38:31;101091.41;;;21.50;22.96
74573;BME280;63071;51.526;-0.134;2022-12-16T03:40:59;101095.59;;;21.51;23.63
74573;BME280;63071;51.526;-0.134;2022-12-16T03:43:27;101091.34;;;21.46;23.44
74573;BME280;63071;51.526;-0.134;2022-12-16T03:45:56;101100.94;;;21.51;23.34
74573;BME280;63071;51.526;-0.134;2022-12-16T03:48:25;101099.06;;;21.51;23.54
74573;BME280;63071;51.526;-0.134;2022-12-16T03:54:12;101095.19;;;21.49;23.65
74573;BME280;63071;51.526;-0.134;2022-12-16T03:56:38;101102.91;;;21.54;23.41
74573;BME280;63071;51.526;-0.134;2022-12-16T03:59:03;101108.22;;;21.54;23.21
74573;BME280;63071;51.526;-0.134;2022-12-16T04:01:29;101104.72;;;21.50;23.54
74573;BME280;63071;51.526;-0.134;2022-12-16T04:03:54;101109.69;;;21.51;22.92
74573;BME280;63071;51.526;-0.134;2022-12-16T04:06:20;101108.13;;;21.50;23.37
74573;BME280;63071;51.526;-0.134;2022-12-16T04:12:00;101103.94;;;21.49;23.05
74573;BME280;63071;51.526;-0.134;2022-12-16T04:14:44;101112.34;;;21.51;23.49
74573;BME280;63071;51.526;-0.134;2022-12-16T04:17:28;101120.25;;;21.48;22.96
74573;BME280;63071;51.526;-0.134;2022-12-16T04:20:15;101115.34;;;21.50;22.91
74573;BME280;63071;51.526;-0.134;2022-12-16T04:23:01;101125.66;;;21.51;23.59
74573;BME280;63071;51.526;-0.134;2022-12-16T04:28:50;101124.03;;;21.47;23.63
74573;BME280;63071;51.526;-0.134;2022-12-16T04:31:15;101122.91;;;21.48;23.16
74573;BME280;63071;51.526;-0.134;2022-12-16T04:33:41;101115.28;;;21.46;23.49
74573;BME280;63071;51.526;-0.134;2022-12-16T04:36:25;101123.69;;;21.48;22.81
74573;BME280;63071;51.526;-0.134;2022-12-16T04:39:09;101123.69;;;21.48;23.49
74573;BME280;63071;51.526;-0.134;2022-12-16T04:45:16;101121.78;;;21.49;22.85
74573;BME280;63071;51.526;-0.134;2022-12-16T04:48:02;101125.22;;;21.49;23.42
74573;BME280;63071;51.526;-0.134;2022-12-16T04:50:46;101135.06;;;21.49;23.00
74573;BME280;63071;51.526;-0.134;2022-12-16T04:53:30;101139.63;;;21.48;22.97
74573;BME280;63071;51.526;-0.134;2022-12-16T04:56:14;101138.88;;;21.48;23.15
74573;BME280;63071;51.526;-0.134;2022-12-16T05:02:20;101144.63;;;21.50;23.47
74573;BME280;63071;51.526;-0.134;2022-12-16T05:05:05;101151.03;;;21.49;23.02
74573;BME280;63071;51.526;-0.134;2022-12-16T05:07:49;101149.16;;;21.49;23.58
74573;BME280;63071;51.526;-0.134;2022-12-16T05:10:33;101151.47;;;21.51;23.47
74573;BME280;63071;51.526;-0.134;2022-12-16T05:13:17;101144.63;;;21.50;23.21
74573;BME280;63071;51.526;-0.134;2022-12-16T05:16:01;101149.94;;;21.50;22.98
74573;BME280;63071;51.526;-0.134;2022-12-16T05:18:45;101156.34;;;21.49;23.55
74573;BME280;63071;51.526;-0.134;2022-12-16T05:21:29;101157.56;;;21.51;23.64
74573;BME280;63071;51.526;-0.134;2022-12-16T05:24:13;101153.34;;;21.50;23.66
74573;BME280;63071;51.526;-0.134;2022-12-16T05:26:57;101152.25;;;21.51;23.42
74573;BME280;63071;51.526;-0.134;2022-12-16T05:29:42;101159.50;;;21.54;22.89
74573;BME280;63071;51.526;-0.134;2022-12-16T05:32:41;101159.84;;;21.53;23.62
74573;BME280;63071;51.526;-0.134;2022-12-16T05:35:25;101157.16;;;21.49;23.02
74573;BME280;63071;51.526;-0.134;2022-12-16T05:38:09;101163.31;;;21.53;23.72
74573;BME280;63071;51.526;-0.134;2022-12-16T05:40:53;101162.47;;;21.49;23.24
74573;BME280;63071;51.526;-0.134;2022-12-16T05:43:37;101172.81;;;21.54;23.69
74573;BME280;63071;51.526;-0.134;2022-12-16T05:46:21;101166.31;;;21.52;23.21
74573;BME280;63071;51.526;-0.134;2022-12-16T05:49:05;101162.09;;;21.51;22.99
74573;BME280;63071;51.526;-0.134;2022-12-16T05:51:49;101174.28;;;21.52;23.47
74573;BME280;63071;51.526;-0.134;2022-12-16T05:54:33;101168.22;;;21.51;23.67
74573;BME280;63071;51.526;-0.134;2022-12-16T05:57:18;101181.94;;;21.53;22.99
74573;BME280;63071;51.526;-0.134;2022-12-16T06:00:02;101179.94;;;21.50;23.55
74573;BME280;63071;51.526;-0.134;2022-12-16T06:02:48;101194.81;;;21.51;23.03
74573;BME280;63071;51.526;-0.134;2022-12-16T06:05:32;101196.66;;;21.51;23.32
74573;BME280;63071;51.526;-0.134;2022-12-16T06:08:36;101194.72;;;21.48;23.51
74573;BME280;63071;51.526;-0.134;2022-12-16T06:11:20;101184.09;;;21.48;23.43
74573;BME280;63071;51.526;-0.134;2022-12-16T06:14:04;101189.06;;;21.49;23.82
74573;BME280;63071;51.526;-0.134;2022-12-16T06:16:49;101187.09;;;21.46;23.23
74573;BME280;63071;51.526;-0.134;2022-12-16T06:19:33;101191.63;;;21.46;23.79
74573;BME280;63071;51.526;-0.134;2022-12-16T06:22:17;101187.84;;;21.47;23.51
74573;BME280;63071;51.526;-0.134;2022-12-16T06:25:01;101186.31;;;21.46;23.10
74573;BME280;63071;51.526;-0.134;2022-12-16T06:27:52;101183.66;;;21.46;23.68
74573;BME280;63071;51.526;-0.134;2022-12-16T06:30:37;101194.28;;;21.46;23.29
74573;BME280;63071;51.526;-0.134;2022-12-16T06:33:21;101189.66;;;21.43;23.34
74573;BME280;63071;51.526;-0.134;2022-12-16T06:36:05;101197.28;;;21.44;23.57
74573;BME280;63071;51.526;-0.134;2022-12-16T06:38:49;101202.28;;;21.46;23.72
74573;BME280;63071;51.526;-0.134;2022-12-16T06:41:33;101207.59;;;21.46;23.18
74573;BME280;63071;51.526;-0.134;2022-12-16T06:44:18;101211.34;;;21.45;23.85
74573;BME280;63071;51.526;-0.134;2022-12-16T06:47:01;101210.94;;;21.43;23.21
74573;BME280;63071;51.526;-0.134;2022-12-16T06:49:45;101222.00;;;21.45;23.80
74573;BME280;63071;51.526;-0.134;2022-12-16T06:52:29;101223.56;;;21.46;23.90
74573;BME280;63071;51.526;-0.134;2022-12-16T06:55:13;101225.00;;;21.43;23.84
74573;BME280;63071;51.526;-0.134;2022-12-16T06:57:59;101223.88;;;21.44;23.24
74573;BME280;63071;51.526;-0.134;2022-12-16T07:00:43;101226.88;;;21.43;23.64
74573;BME280;63071;51.526;-0.134;2022-12-16T07:03:27;101222.84;;;21.49;24.29
74573;BME280;63071;51.526;-0.134;2022-12-16T07:06:11;101224.75;;;21.48;23.79
74573;BME280;63071;51.526;-0.134;2022-12-16T07:08:56;101215.38;;;21.54;24.22
74573;BME280;63071;51.526;-0.134;2022-12-16T07:11:40;101220.56;;;21.47;24.75
74573;BME280;63071;51.526;-0.134;2022-12-16T07:14:24;101219.00;;;21.46;24.76
74573;BME280;63071;51.526;-0.134;2022-12-16T07:17:08;101230.06;;;21.48;23.83
74573;BME280;63071;51.526;-0.134;2022-12-16T07:19:54;101227.41;;;21.48;24.42
74573;BME280;63071;51.526;-0.134;2022-12-16T07:22:42;101229.00;;;21.53;24.21
74573;BME280;63071;51.526;-0.134;2022-12-16T07:25:26;101241.53;;;21.52;23.88
74573;BME280;63071;51.526;-0.134;2022-12-16T07:28:10;101233.56;;;21.52;24.32
74573;BME280;63071;51.526;-0.134;2022-12-16T07:30:54;101246.53;;;21.54;23.90
74573;BME280;63071;51.526;-0.134;2022-12-16T07:33:38;101241.53;;;21.52;23.74
74573;BME280;63071;51.526;-0.134;2022-12-16T07:36:22;101253.03;;;21.56;24.27
74573;BME280;63071;51.526;-0.134;2022-12-16T07:39:06;101257.16;;;21.54;24.34
74573;BME280;63071;51.526;-0.134;2022-12-16T07:41:50;101261.28;;;21.51;24.06
74573;BME280;63071;51.526;-0.134;2022-12-16T07:44:34;101256.75;;;21.52;23.78
74573;BME280;63071;51.526;-0.134;2022-12-16T07:47:18;101264.72;;;21.52;23.81
74573;BME280;63071;51.526;-0.134;2022-12-16T07:50:02;101271.56;;;21.53;24.18
74573;BME280;63071;51.526;-0.134;2022-12-16T07:52:55;101276.13;;;21.52;23.87
74573;BME280;63071;51.526;-0.134;2022-12-16T07:55:39;101282.22;;;21.53;24.10
74573;BME280;63071;51.526;-0.134;2022-12-16T07:58:23;101297.06;;;21.54;24.25
74573;BME280;63071;51.526;-0.134;2022-12-16T08:01:07;101306.16;;;21.53;24.53
74573;BME280;63071;51.526;-0.134;2022-12-16T08:03:51;101301.19;;;21.51;23.90
74573;BME280;63071;51.526;-0.134;2022-12-16T08:06:35;101304.63;;;21.52;23.83
74573;BME280;63071;51.526;-0.134;2022-12-16T08:09:19;101309.94;;;21.52;24.49
74573;BME280;63071;51.526;-0.134;2022-12-16T08:12:17;101306.16;;;21.53;24.32
74573;BME280;63071;51.526;-0.134;2022-12-16T08:15:01;101311.03;;;21.51;24.19
74573;BME280;63071;51.526;-0.134;2022-12-16T08:17:50;101314.06;;;21.49;24.39
74573;BME280;63071;51.526;-0.134;2022-12-16T08:20:34;101323.56;;;21.50;23.87
74573;BME280;63071;51.526;-0.134;2022-12-16T08:23:18;101315.25;;;21.52;24.10
74573;BME280;63071;51.526;-0.134;2022-12-16T08:26:02;101329.66;;;21.51;24.25
74573;BME280;63071;51.526;-0.134;2022-12-16T08:28:48;101329.22;;;21.49;24.15
74573;BME280;63071;51.526;-0.134;2022-12-16T08:31:32;101330.03;;;21.49;24.04
74573;BME280;63071;51.526;-0.134;2022-12-16T08:34:32;101338.34;;;21.48;24.71
74573;BME280;63071;51.526;-0.134;2022-12-16T08:37:16;101328.78;;;21.47;24.00
74573;BME280;63071;51.526;-0.134;2022-12-16T08:40:00;101331.13;;;21.48;24.53
74573;BME280;63071;51.526;-0.134;2022-12-16T08:42:45;101339.88;;;21.49;24.28
74573;BME280;63071;51.526;-0.134;2022-12-16T08:45:33;101343.75;;;21.51;24.45
74573;BME280;63071;51.526;-0.134;2022-12-16T08:48:17;101342.19;;;21.50;23.75
74573;BME280;63071;51.526;-0.134;2022-12-16T08:51:04;101342.53;;;21.49;24.22
74573;BME280;63071;51.526;-0.134;2022-12-16T08:53:50;101353.59;;;21.51;23.80
74573;BME280;63071;51.526;-0.134;2022-12-16T08:56:33;101345.63;;;21.51;24.21
74573;BME280;63071;51.526;-0.134;2022-12-16T08:59:18;101350.06;;;21.47;24.57
74573;BME280;63071;51.526;-0.134;2022-12-16T09:02:02;101348.53;;;21.46;24.32
74573;BME280;63071;51.526;-0.134;2022-12-16T09:04:46;101347.41;;;21.47;24.49
74573;BME280;63071;51.526;-0.134;2022-12-16T09:07:30;101358.06;;;21.47;24.01
74573;BME280;63071;51.526;-0.134;2022-12-16T09:10:14;101358.06;;;21.47;24.48
74573;BME280;63071;51.526;-0.134;2022-12-16T09:13:08;101349.88;;;21.39;24.07
74573;BME280;63071;51.526;-0.134;2022-12-16T09:15:53;101362.59;;;21.46;24.51
74573;BME280;63071;51.526;-0.134;2022-12-16T09:18:37;101370.25;;;21.48;23.74
74573;BME280;63071;51.526;-0.134;2022-12-16T09:21:21;101369.50;;;21.47;23.72
74573;BME280;63071;51.526;-0.134;2022-12-16T09:24:05;101377.47;;;21.47;24.37
74573;BME280;63071;51.526;-0.134;2022-12-16T09:26:49;101382.00;;;21.47;24.17
74573;BME280;63071;51.526;-0.134;2022-12-16T09:29:33;101375.91;;;21.46;24.07
74573;BME280;63071;51.526;-0.134;2022-12-16T09:32:17;101380.88;;;21.48;23.98
74573;BME280;63071;51.526;-0.134;2022-12-16T09:35:01;101381.56;;;21.45;23.72
74573;BME280;63071;51.526;-0.134;2022-12-16T09:37:46;101394.53;;;21.46;24.13
74573;BME280;63071;51.526;-0.134;2022-12-16T09:40:31;101388.44;;;21.46;23.85
74573;BME280;63071;51.526;-0.134;2022-12-16T09:49:45;101385.88;;;21.49;24.34
74573;BME280;63071;51.526;-0.134;2022-12-16T09:52:43;101385.09;;;21.49;24.21
74573;BME280;63071;51.526;-0.134;2022-12-16T09:55:39;101389.28;;;21.50;23.95
74573;BME280;63071;51.526;-0.134;2022-12-16T09:58:35;101392.63;;;21.47;23.51
74573;BME280;63071;51.526;-0.134;2022-12-16T10:01:24;101406.34;;;21.49;24.00
74573;BME280;63071;51.526;-0.134;2022-12-16T10:04:09;101398.75;;;21.47;24.14
74573;BME280;63071;51.526;-0.134;2022-12-16T10:06:58;101402.94;;;21.48;24.26
74573;BME280;63071;51.526;-0.134;2022-12-16T10:10:07;101409.81;;;21.49;23.99
74573;BME280;63071;51.526;-0.134;2022-12-16T10:13:24;101410.56;;;21.50;24.22
74573;BME280;63071;51.526;-0.134;2022-12-16T10:19:15;101419.66;;;21.49;24.14
74573;BME280;63071;51.526;-0.134;2022-12-16T10:25:44;101422.75;;;21.51;23.57
74573;BME280;63071;51.526;-0.134;2022-12-16T10:28:47;101424.75;;;21.54;24.11
74573;BME280;63071;51.526;-0.134;2022-12-16T10:31:33;101422.84;;;21.54;24.29
74573;BME280;63071;51.526;-0.134;2022-12-16T10:34:27;101418.06;;;21.60;23.54
74573;BME280;63071;51.526;-0.134;2022-12-16T10:40:17;101421.31;;;21.53;24.12
74573;BME280;63071;51.526;-0.134;2022-12-16T10:43:10;101427.41;;;21.54;23.54
74573;BME280;63071;51.526;-0.134;2022-12-16T10:45:58;101427.81;;;21.56;23.47
74573;BME280;63071;51.526;-0.134;2022-12-16T10:48:43;101426.69;;;21.57;23.60
74573;BME280;63071;51.526;-0.134;2022-12-16T10:51:28;101432.03;;;21.57;23.80
74573;BME280;63071;51.526;-0.134;2022-12-16T10:57:13;101429.03;;;21.58;24.20
74573;BME280;63071;51.526;-0.134;2022-12-16T11:00:20;101433.56;;;21.58;23.31
74573;BME280;63071;51.526;-0.134;2022-12-16T11:03:25;101427.56;;;21.61;24.28
74573;BME280;63071;51.526;-0.134;2022-12-16T11:06:15;101427.56;;;21.61;23.86
74573;BME280;63071;51.526;-0.134;2022-12-16T11:09:30;101423.81;;;21.62;23.95
74573;BME280;63071;51.526;-0.134;2022-12-16T11:18:14;101420.00;;;21.63;23.40
74573;BME280;63071;51.526;-0.134;2022-12-16T11:21:12;101405.94;;;21.63;24.18
74573;BME280;63071;51.526;-0.134;2022-12-16T11:26:55;101416.25;;;21.64;23.64
74573;BME280;63071;51.526;-0.134;2022-12-16T11:32:56;101418.56;;;21.66;23.73
74573;BME280;63071;51.526;-0.134;2022-12-16T11:35:47;101422.84;;;21.70;23.66
74573;BME280;63071;51.526;-0.134;2022-12-16T11:38:45;101411.34;;;21.66;23.92
74573;BME280;63071;51.526;-0.134;2022-12-16T11:41:44;101412.47;;;21.65;23.45
74573;BME280;63071;51.526;-0.134;2022-12-16T11:44:35;101409.91;;;21.69;23.71
74573;BME280;63071;51.526;-0.134;2022-12-16T11:47:39;101411.88;;;21.72;23.77
74573;BME280;63071;51.526;-0.134;2022-12-16T11:50:26;101401.06;;;21.65;23.81
74573;BME280;63071;51.526;-0.134;2022-12-16T11:53:36;101418.31;;;21.71;23.47
74573;BME280;63071;51.526;-0.134;2022-12-16T11:56:32;101411.19;;;21.75;24.00
74573;BME280;63071;51.526;-0.134;2022-12-16T11:59:38;101413.06;;;21.74;23.98
74573;BME280;63071;51.526;-0.134;2022-12-16T12:05:37;101411.94;;;21.75;23.57
74573;BME280;63071;51.526;-0.134;2022-12-16T12:08:35;101418.81;;;21.76;23.23
74573;BME280;63071;51.526;-0.134;2022-12-16T12:11:29;101408.09;;;21.73;23.97
74573;BME280;63071;51.526;-0.134;2022-12-16T12:21:17;101417.44;;;21.83;24.04
74573;BME280;63071;51.526;-0.134;2022-12-16T12:30:10;101424.56;;;21.78;23.93
74573;BME280;63071;51.526;-0.134;2022-12-16T12:36:15;101423.13;;;21.81;23.36
74573;BME280;63071;51.526;-0.134;2022-12-16T12:45:20;101425.09;;;21.84;23.92
74573;BME280;63071;51.526;-0.134;2022-12-16T12:48:35;101417.53;;;21.86;24.33
74573;BME280;63071;51.526;-0.134;2022-12-16T12:54:32;101420.97;;;21.87;24.13
74573;BME280;63071;51.526;-0.134;2022-12-16T12:57:22;101428.97;;;21.87;24.30
74573;BME280;63071;51.526;-0.134;2022-12-16T13:00:16;101431.88;;;21.81;23.70
74573;BME280;63071;51.526;-0.134;2022-12-16T13:03:12;101423.13;;;21.81;23.69
74573;BME280;63071;51.526;-0.134;2022-12-16T13:05:59;101420.13;;;21.83;23.47
74573;BME280;63071;51.526;-0.134;2022-12-16T13:11:31;101425.16;;;21.88;23.50
74573;BME280;63071;51.526;-0.134;2022-12-16T13:17:17;101426.28;;;21.87;23.55
74573;BME280;63071;51.526;-0.134;2022-12-16T13:20:32;101434.94;;;21.84;23.51
74573;BME280;63071;51.526;-0.134;2022-12-16T13:23:27;101425.53;;;21.86;24.18
74573;BME280;63071;51.526;-0.134;2022-12-16T13:26:15;101424.06;;;21.89;24.03
74573;BME280;63071;51.526;-0.134;2022-12-16T13:29:17;101415.22;;;21.85;23.70
74573;BME280;63071;51.526;-0.134;2022-12-16T13:32:23;101418.56;;;21.81;24.17
74573;BME280;63071;51.526;-0.134;2022-12-16T13:40:53;101415.91;;;21.81;24.02
74573;BME280;63071;51.526;-0.134;2022-12-16T13:43:45;101423.88;;;21.81;24.08
74573;BME280;63071;51.526;-0.134;2022-12-16T13:46:48;101420.13;;;21.83;24.43
74573;BME280;63071;51.526;-0.134;2022-12-16T13:55:53;101424.31;;;21.84;23.87
74573;BME280;63071;51.526;-0.134;2022-12-16T13:58:39;101415.66;;;21.87;24.12
74573;BME280;63071;51.526;-0.134;2022-12-16T14:01:36;101430.06;;;21.86;23.51
74573;BME280;63071;51.526;-0.134;2022-12-16T14:04:30;101427.75;;;21.84;23.93
74573;BME280;63071;51.526;-0.134;2022-12-16T14:07:17;101421.06;;;21.90;24.27
74573;BME280;63071;51.526;-0.134;2022-12-16T14:10:04;101433.66;;;21.93;24.33
74573;BME280;63071;51.526;-0.134;2022-12-16T14:12:56;101429.13;;;21.94;23.83
74573;BME280;63071;51.526;-0.134;2022-12-16T14:19:11;101430.66;;;21.95;23.78
74573;BME280;63071;51.526;-0.134;2022-12-16T14:22:43;101440.03;;;21.89;23.92
74573;BME280;63071;51.526;-0.134;2022-12-16T14:25:30;101438.03;;;21.86;24.05
74573;BME280;63071;51.526;-0.134;2022-12-16T14:31:23;101442.00;;;21.92;24.22
74573;BME280;63071;51.526;-0.134;2022-12-16T14:34:15;101436.00;;;21.95;23.47
74573;BME280;63071;51.526;-0.134;2022-12-16T14:37:11;101439.50;;;21.99;23.89
74573;BME280;63071;51.526;-0.134;2022-12-16T14:39:55;101437.56;;;21.96;24.03
74573;BME280;63071;51.526;-0.134;2022-12-16T14:42:41;101447.50;;;21.99;23.48
74573;BME280;63071;51.526;-0.134;2022-12-16T14:45:31;101448.63;;;21.98;23.33
74573;BME280;63071;51.526;-0.134;2022-12-16T14:56:58;101460.81;;;21.99;23.31
74573;BME280;63071;51.526;-0.134;2022-12-16T14:59:43;101460.03;;;21.98;24.02
74573;BME280;63071;51.526;-0.134;2022-12-16T15:02:34;101469.13;;;21.97;24.16
74573;BME280;63071;51.526;-0.134;2022-12-16T15:05:29;101470.25;;;21.96;23.46
74573;BME280;63071;51.526;-0.134;2022-12-16T15:08:15;101471.03;;;21.97;23.98
74573;BME280;63071;51.526;-0.134;2022-12-16T15:11:04;101469.91;;;21.98;23.96
74573;BME280;63071;51.526;-0.134;2022-12-16T15:13:55;101475.25;;;21.98;23.77
74573;BME280;63071;51.526;-0.134;2022-12-16T15:16:45;101479.00;;;21.97;23.68
74573;BME280;63071;51.526;-0.134;2022-12-16T15:19:42;101488.47;;;21.94;23.77
74573;BME280;63071;51.526;-0.134;2022-12-16T15:22:26;101495.25;;;21.92;23.67
74573;BME280;63071;51.526;-0.134;2022-12-16T15:25:18;101493.00;;;21.94;23.88
74573;BME280;63071;51.526;-0.134;2022-12-16T15:28:03;101490.34;;;21.94;24.32
74573;BME280;63071;51.526;-0.134;2022-12-16T15:30:48;101491.56;;;21.96;23.78
74573;BME280;63071;51.526;-0.134;2022-12-16T15:33:37;101489.22;;;21.95;23.74
74573;BME280;63071;51.526;-0.134;2022-12-16T15:36:30;101490.34;;;21.94;24.15
74573;BME280;63071;51.526;-0.134;2022-12-16T15:39:25;101494.88;;;21.93;24.08
74573;BME280;63071;51.526;-0.134;2022-12-16T15:42:28;101500.56;;;21.92;23.64
74573;BME280;63071;51.526;-0.134;2022-12-16T15:45:28;101497.91;;;21.92;24.23
74573;BME280;63071;51.526;-0.134;2022-12-16T15:48:22;101500.56;;;21.92;23.53
74573;BME280;63071;51.526;-0.134;2022-12-16T15:51:30;101506.56;;;21.89;24.13
74573;BME280;63071;51.526;-0.134;2022-12-16T15:54:22;101503.03;;;21.85;24.13
74573;BME280;63071;51.526;-0.134;2022-12-16T15:57:29;101507.00;;;21.91;24.09
74573;BME280;63071;51.526;-0.134;2022-12-16T16:03:25;101514.31;;;21.94;23.61
74573;BME280;63071;51.526;-0.134;2022-12-16T16:06:22;101516.53;;;21.92;24.01
74573;BME280;63071;51.526;-0.134;2022-12-16T16:09:28;101520.09;;;21.84;24.47
74573;BME280;63071;51.526;-0.134;2022-12-16T16:12:14;101527.75;;;21.85;24.21
74573;BME280;63071;51.526;-0.134;2022-12-16T16:14:59;101519.44;;;21.87;24.49
74573;BME280;63071;51.526;-0.134;2022-12-16T16:17:43;101524.00;;;21.86;24.14
74573;BME280;63071;51.526;-0.134;2022-12-16T16:20:27;101517.88;;;21.86;24.45
74573;BME280;63071;51.526;-0.134;2022-12-16T16:23:11;101528.88;;;21.84;24.60
74573;BME280;63071;51.526;-0.134;2022-12-16T16:25:56;101522.78;;;21.84;23.86
74573;BME280;63071;51.526;-0.134;2022-12-16T16:28:41;101527.31;;;21.83;23.92
74573;BME280;63071;51.526;-0.134;2022-12-16T16:31:25;101531.88;;;21.83;23.94
74573;BME280;63071;51.526;-0.134;2022-12-16T16:34:09;101535.41;;;21.87;24.56
74573;BME280;63071;51.526;-0.134;2022-12-16T16:37:13;101531.63;;;21.88;24.56